Latest Weather Observations for Falls Creek

IDV60801

Issued at 12:02 pm EST Friday 27 May 2016 (issued every 30 minutes, with the page automatically refreshed every 10 minutes)

About weather observations | Map of weather stations | Latest weather observations for VIC | Other Formats
Station Details ID: 083084 Name: FALLS CREEK Lat: -36.87 Lon: 147.28 Height: 1765.0 m
Data from the previous 72 hours. | See also: Recent months at Falls Creek
Date/Time
EST
Temp
°C
App
Temp
°C
Dew
Point
Rel
Hum
%
Delta-T
°C
Wind Press
QNH
hPa
Press
MSL
hPa
Rain
since 9 am
mm
Dir
 
Spd
km/h
Gust
km/h
Spd
kts
Gust
kts
27/12:00pm -1.4 -7.9 -2.1 95 0.2 WSW 22 35 12 19 1003.9 1002.7 0.0
27/11:30am -1.4 -7.5 -2.0 96 0.2 WSW 20 32 11 17 1003.8 1002.6 0.0
27/11:00am -1.5 -8.3 -2.1 96 0.2 WSW 24 37 13 20 1003.9 1002.7 0.0
27/10:30am -1.6 -7.5 -1.9 98 0.0 W 19 30 10 16 1004.2 1003.0 0.0
27/10:00am -1.7 -7.8 -2.1 97 0.1 SW 20 33 11 18 1004.2 1003.0 0.0
27/09:30am -2.0 -8.1 -2.3 98 0.0 WSW 20 30 11 16 1004.1 1002.8 0.0
27/09:00am -2.2 -8.7 -2.5 98 0.0 WSW 22 32 12 17 1003.8 1002.6 4.2
27/08:30am -2.4 -8.4 -2.8 97 0.0 WSW 19 32 10 17 1003.6 1002.3 4.2
27/08:00am -2.5 -9.4 -2.9 97 0.0 WSW 24 35 13 19 1003.1 1001.8 4.2
27/07:30am -2.4 -11.1 -3.1 95 0.1 SW 33 46 18 25 1002.9 1001.6 4.2
27/07:00am -2.2 -9.1 -2.7 96 0.1 SW 24 33 13 18 1002.9 1001.6 4.2
27/06:30am -2.3 -10.4 -3.1 94 0.2 SW 30 46 16 25 1002.7 1001.5 4.2
27/06:28am -2.3 -10.0 -3.1 94 0.2 SW 28 46 15 25 1002.7 1001.5 4.2
27/06:00am -2.2 -9.9 -2.9 95 0.2 WSW 28 43 15 23 1002.6 1001.3 4.2
27/05:30am -2.2 -8.3 -2.5 98 0.0 WSW 20 28 11 15 1002.5 1001.2 4.2
27/05:00am -2.2 -8.3 -2.5 98 0.0 WSW 20 30 11 16 1002.6 1001.3 4.2
27/04:30am -2.0 -7.9 -2.3 98 0.0 WSW 19 28 10 15 1002.7 1001.5 4.2
27/04:00am -2.0 -7.1 -2.3 98 0.0 W 15 26 8 14 1002.4 1001.1 4.2
27/03:30am -1.7 -7.2 -1.8 99 0.0 W 17 24 9 13 1002.5 1001.2 4.2
27/03:00am -1.7 -7.2 -1.8 99 0.0 W 17 26 9 14 1002.5 1001.2 4.2
27/02:30am -1.5 -6.6 -1.6 99 0.0 WSW 15 30 8 16 1002.5 1001.2 4.2
27/02:00am -1.3 -7.7 -1.4 99 0.0 SW 22 33 12 18 1002.4 1001.1 4.2
27/01:30am -1.3 -7.3 -1.4 99 0.0 WSW 20 28 11 15 1002.5 1001.2 4.2
27/01:00am -1.1 -7.1 -1.2 99 0.0 WSW 20 30 11 16 1002.4 1001.1 4.2
27/12:30am -0.8 -5.8 -0.9 99 0.0 WSW 15 24 8 13 1002.9 1001.6 4.2
27/12:00am -0.9 -5.5 -1.0 99 0.0 SW 13 26 7 14 1002.9 1001.6 4.2
 
Date/Time
EST
Temp
°C
App
Temp
°C
Dew
Point
Rel
Hum
%
Delta-T
°C
Wind Press
QNH
hPa
Press
MSL
hPa
Rain
since 9 am
mm
Dir
 
Spd
km/h
Gust
km/h
Spd
kts
Gust
kts
26/11:30pm -0.8 -6.1 -0.9 99 0.0 SW 17 22 9 12 1003.0 1001.7 4.2
26/11:00pm -0.6 -6.3 -0.7 99 0.0 SW 19 24 10 13 1003.0 1001.7 4.2
26/10:30pm -0.5 -7.5 -0.6 99 0.0 SW 26 33 14 18 1003.0 1001.7 4.2
26/10:00pm -0.3 -6.5 -0.4 99 0.0 SW 22 33 12 18 1003.0 1001.7 4.2
26/09:30pm -0.1 -6.7 -0.2 99 0.0 SW 24 35 13 19 1002.9 1001.6 4.2
26/09:00pm 0.1 -5.7 0.0 99 0.0 SW 20 33 11 18 1002.9 1001.6 4.2
26/08:30pm 0.2 -4.6 0.1 99 0.0 SW 15 20 8 11 1002.9 1001.6 4.2
26/08:00pm 0.3 -5.3 0.2 99 0.0 SW 19 24 10 13 1002.5 1001.2 4.2
26/07:30pm 0.2 -6.7 0.1 99 0.0 SW 26 35 14 19 1002.0 1000.7 4.0
26/07:00pm 0.4 -5.3 0.3 99 0.0 WSW 20 28 11 15 1002.0 1000.7 4.0
26/06:30pm 0.1 -5.1 0.0 99 0.0 W 17 20 9 11 1001.8 1000.5 4.0
26/06:00pm 0.3 -4.1 0.2 99 0.0 NW 13 20 7 11 1001.2 999.9 3.6
26/05:30pm 0.4 -4.4 0.3 99 0.0 WNW 15 20 8 11 1001.1 999.7 3.6
26/05:00pm 0.4 -5.7 0.3 99 0.0 WNW 22 30 12 16 1000.8 999.5 3.6
26/04:30pm 0.3 -7.7 0.2 99 0.0 W 32 46 17 25 1000.6 999.2 3.6
26/04:00pm 0.6 -7.0 0.5 99 0.0 WNW 30 44 16 24 1000.2 998.9 3.6
26/03:30pm 0.6 -7.6 0.5 99 0.0 WNW 33 56 18 30 1000.4 999.0 3.4
26/03:00pm 0.9 -6.7 0.8 99 0.0 WNW 30 48 16 26 1000.1 998.7 3.4
26/02:30pm 1.0 -7.5 0.9 99 0.0 WNW 35 56 19 30 1000.2 998.9 3.4
26/02:18pm 0.9 -6.7 0.8 99 0.0 WNW 30 48 16 26 1000.2 998.9 3.2
26/02:00pm 0.9 -6.7 0.8 99 0.0 WNW 30 44 16 24 1000.4 999.0 3.2
26/01:53pm 1.0 -6.5 0.9 99 0.0 WNW 30 48 16 26 1000.5 999.1 3.2
26/01:30pm 0.9 -5.5 0.8 99 0.0 NW 24 44 13 24 1000.5 999.1 3.2
26/01:00pm 0.7 -5.0 0.6 99 0.0 NW 20 30 11 16 1000.6 999.2 3.2
26/12:30pm 0.4 -6.1 0.3 99 0.0 NW 24 33 13 18 1000.8 999.5 3.2
26/12:00pm 0.4 -6.9 0.3 99 0.0 NNW 28 43 15 23 1000.8 999.5 2.8
26/11:30am 0.4 -7.8 0.3 99 0.0 NW 33 44 18 24 1001.2 999.9 2.4
26/11:00am 0.3 -7.4 0.2 99 0.0 NW 30 39 16 21 1001.9 1000.6 2.0
26/10:30am 0.2 -7.5 0.1 99 0.0 NNW 30 39 16 21 1002.5 1001.2 1.2
26/10:00am 0.1 -8.0 0.0 99 0.0 NNW 32 43 17 23 1002.4 1001.1 1.0
26/09:30am 0.0 -7.7 -0.1 99 0.0 NNW 30 37 16 20 1002.7 1001.5 0.8
26/09:00am -0.1 -7.4 -0.2 99 0.0 NNW 28 39 15 21 1002.9 1001.6 11.4
26/08:30am -0.1 -7.1 -0.2 99 0.0 NNW 26 35 14 19 1003.3 1002.1 11.4
26/08:00am -0.1 -7.4 -0.2 99 0.0 NNW 28 37 15 20 1003.6 1002.3 11.2
26/07:30am 0.1 -8.0 0.0 99 0.0 NNW 32 44 17 24 1003.8 1002.6 10.6
26/07:00am 0.2 -7.8 0.1 99 0.0 NNW 32 39 17 21 1004.2 1003.0 10.0
26/06:30am 0.2 -7.8 0.1 99 0.0 NNW 32 44 17 24 1004.4 1003.2 9.4
26/06:00am 0.4 -7.6 0.3 99 0.0 NNW 32 43 17 23 1004.5 1003.3 8.8
26/05:30am 0.5 -8.1 0.4 99 0.0 NNW 35 48 19 26 1004.5 1003.3 8.6
26/05:00am 0.5 -8.1 0.4 99 0.0 NNW 35 44 19 24 1004.9 1003.7 8.6
26/04:30am 0.4 -8.2 0.3 99 0.0 NNW 35 50 19 27 1004.9 1003.7 8.4
26/04:00am 0.4 -9.7 0.3 99 0.0 NNW 43 61 23 33 1005.0 1003.8 8.4
26/03:49am 0.4 -9.3 0.3 99 0.0 NNW 41 59 22 32 1005.5 1004.3 8.2
26/03:30am 0.5 -9.2 0.4 99 0.0 NNW 41 56 22 30 1005.8 1004.7 7.4
26/03:10am 0.7 -8.2 0.6 99 0.0 NNW 37 56 20 30 1006.4 1005.3 7.0
26/03:00am 0.7 -8.6 0.6 99 0.0 NNW 39 56 21 30 1006.3 1005.2 7.0
26/02:38am 0.9 -8.4 0.8 99 0.0 NNW 39 57 21 31 1006.7 1005.6 6.6
26/02:30am 0.8 -8.1 0.7 99 0.0 NNW 37 50 20 27 1006.8 1005.7 6.4
26/02:00am 0.8 -8.1 0.7 99 0.0 NNW 37 50 20 27 1006.8 1005.7 6.2
26/01:30am 0.7 -8.2 0.6 99 0.0 NNW 37 50 20 27 1007.3 1006.2 6.0
26/01:00am 0.7 -9.0 0.6 99 0.0 NNW 41 61 22 33 1008.1 1007.0 5.8
26/12:53am 0.7 -8.6 0.6 99 0.0 NNW 39 61 21 33 1008.2 1007.2 5.8
26/12:30am 0.9 -8.4 0.8 99 0.0 NNW 39 56 21 30 1008.3 1007.3 5.2
26/12:23am 0.9 -8.0 0.8 99 0.0 NNW 37 56 20 30 1008.6 1007.5 5.0
26/12:00am 0.8 -8.5 0.7 99 0.0 NNW 39 50 21 27 1009.0 1008.0 5.0
 
Date/Time
EST
Temp
°C
App
Temp
°C
Dew
Point
Rel
Hum
%
Delta-T
°C
Wind Press
QNH
hPa
Press
MSL
hPa
Rain
since 9 am
mm
Dir
 
Spd
km/h
Gust
km/h
Spd
kts
Gust
kts
25/11:30pm 0.7 -8.6 0.6 99 0.0 NNW 39 52 21 28 1009.4 1008.4 4.8
25/11:20pm 0.8 -8.1 0.7 99 0.0 NNW 37 56 20 30 1009.4 1008.4 4.8
25/11:00pm 0.6 -7.6 0.5 99 0.0 NNW 33 48 18 26 1009.8 1008.8 4.6
25/10:30pm 0.5 -8.1 0.4 99 0.0 NNW 35 48 19 26 1009.8 1008.8 4.4
25/10:02pm 0.2 -9.6 0.1 99 0.0 NNW 41 59 22 32 1009.9 1008.9 4.2
25/10:00pm 0.2 -9.9 0.1 99 0.0 NNW 43 59 23 32 1009.9 1008.9 4.2
25/09:30pm 0.1 -10.1 0.0 99 0.0 NNW 43 56 23 30 1009.9 1008.9 4.2
25/09:00pm 0.0 -9.4 -0.1 99 0.0 NNW 39 57 21 31 1010.8 1009.9 4.2
25/08:42pm 0.1 -9.3 0.0 99 0.0 NNW 39 57 21 31 1011.1 1010.1 4.2
25/08:30pm 0.1 -9.3 0.0 99 0.0 NNW 39 56 21 30 1011.0 1010.0 4.0
25/08:06pm -0.1 -9.5 -0.2 99 0.0 NNW 39 57 21 31 1010.8 1009.9 3.4
25/08:00pm -0.1 -8.8 -0.2 99 0.0 NNW 35 50 19 27 1011.0 1010.0 3.2
25/07:44pm -0.1 -8.8 -0.2 99 0.0 NNW 35 54 19 29 1011.0 1010.0 2.6
25/07:30pm -0.1 -9.1 -0.2 99 0.0 NW 37 50 20 27 1011.1 1010.1 2.0
25/07:00pm 0.2 -9.2 0.1 99 0.0 NNW 39 56 21 30 1010.8 1009.9 1.0
25/06:30pm 0.3 -9.1 0.2 99 0.0 NNW 39 56 21 30 1011.2 1010.3 0.2
25/06:07pm 0.5 -9.2 0.4 99 0.0 NNW 41 59 22 32 1011.4 1010.5 0.0
25/06:00pm 0.4 -9.7 0.3 99 0.0 NNW 43 59 23 32 1011.4 1010.5 0.0
25/05:36pm 0.6 -8.0 0.5 99 0.0 NNW 35 54 19 29 1011.9 1011.0 0.0
25/05:30pm 0.7 -7.8 0.6 99 0.0 NNW 35 46 19 25 1012.0 1011.1 0.0
25/05:06pm 0.5 -7.7 0.4 99 0.0 NNW 33 52 18 28 1012.3 1011.4 0.0
25/05:00pm 0.5 -7.7 0.4 99 0.0 NNW 33 48 18 26 1012.5 1011.6 0.0
25/04:30pm 0.7 -7.5 0.6 99 0.0 NNW 33 48 18 26 1012.4 1011.5 0.0
25/04:00pm 0.8 -7.7 0.7 99 0.0 NNW 35 50 19 27 1012.3 1011.4 0.0
25/03:30pm 0.7 -7.3 0.6 99 0.0 NNW 32 46 17 25 1012.5 1011.6 0.0
25/03:00pm 0.6 -7.0 0.5 99 0.0 NNW 30 39 16 21 1012.4 1011.5 0.0
25/02:39pm 0.6 -7.0 0.5 99 0.0 NNW 30 48 16 26 1012.6 1011.7 0.0
25/02:30pm 0.7 -7.8 0.6 99 0.0 NW 35 48 19 26 1012.6 1011.7 0.0
25/02:00pm 0.7 -6.9 0.6 99 0.0 NNW 30 46 16 25 1012.7 1011.9 0.0
25/01:30pm 0.8 -7.3 0.7 99 0.0 NW 33 43 18 23 1013.2 1012.4 0.0
25/01:00pm 0.8 -7.3 0.7 99 0.0 NW 33 46 18 25 1013.6 1012.7 0.0
25/12:30pm 1.1 -6.8 0.8 98 0.1 NW 32 43 17 23 1014.0 1013.2 0.0
25/12:00pm 1.0 -7.1 0.7 98 0.1 NW 33 50 18 27 1014.6 1013.9 0.0
25/11:49am 1.3 -7.2 1.0 98 0.1 NW 35 54 19 29 1014.8 1014.0 0.0
25/11:30am 1.5 -7.0 0.9 96 0.3 WNW 35 44 19 24 1015.2 1014.5 0.0
25/11:00am 1.4 -7.6 0.4 93 0.4 WNW 37 48 20 26 1015.5 1014.7 0.0
25/10:30am 1.4 -6.8 0.2 92 0.5 WNW 33 46 18 25 1015.6 1014.8 0.0
25/10:00am 1.6 -4.5 0.1 90 0.6 NW 22 33 12 18 1015.7 1015.0 0.0
25/09:30am 0.8 -4.4 0.2 96 0.2 NNW 17 26 9 14 1015.9 1015.2 0.0
25/09:00am 1.0 -4.9 -0.6 89 0.6 NNW 20 30 11 16 1016.4 1015.7 0.0
25/08:30am 1.1 -4.8 -2.0 80 1.3 NW 19 26 10 14 1016.4 1015.7 0.0
25/08:00am 1.4 -5.6 -7.4 52 3.1 WNW 22 30 12 16 1016.3 1015.6 0.0
25/07:30am 1.0 -5.2 -8.8 48 3.3 WNW 17 22 9 12 1016.4 1015.7 0.0
25/07:00am 1.1 -5.8 -10.4 42 3.7 WNW 20 33 11 18 1016.5 1015.8 0.0
25/06:30am 0.2 -5.6 -8.7 51 2.9 NNW 15 22 8 12 1016.5 1015.8 0.0
25/06:00am 1.0 -6.4 -12.7 35 4.1 W 22 26 12 14 1016.3 1015.6 0.0
25/05:30am 0.7 -7.8 -11.6 39 3.8 WNW 28 35 15 19 1016.5 1015.8 0.0
25/05:00am 0.2 -7.7 -9.2 49 3.0 W 26 32 14 17 1016.5 1015.8 0.0
25/04:30am 0.4 -7.1 -8.8 50 3.0 W 24 37 13 20 1016.3 1015.6 0.0
25/04:00am 0.9 -5.9 -9.4 46 3.4 W 20 26 11 14 1016.3 1015.6 0.0
25/03:30am 1.5 -4.9 -11.2 38 4.0 WNW 17 22 9 12 1016.4 1015.7 0.0
25/03:00am 3.6 -3.4 -14.6 25 5.5 WSW 19 26 10 14 1016.8 1016.1 0.0
25/02:30am 3.9 -3.3 -15.3 23 5.8 SW 20 30 11 16 1017.0 1016.3 0.0
25/02:00am 3.2 -4.3 -14.4 26 5.3 SW 22 26 12 14 1017.1 1016.5 0.0
25/01:30am 1.5 -5.9 -11.9 36 4.2 SSW 22 26 12 14 1017.3 1016.6 0.0
25/01:00am 2.2 -4.2 -12.0 34 4.5 SSW 17 22 9 12 1017.4 1016.7 0.0
25/12:30am 1.3 -6.0 -10.5 41 3.8 SW 22 26 12 14 1017.6 1016.9 0.0
25/12:00am 1.0 -5.0 -10.7 41 3.7 SSW 15 19 8 10 1017.7 1017.1 0.0
 
Date/Time
EST
Temp
°C
App
Temp
°C
Dew
Point
Rel
Hum
%
Delta-T
°C
Wind Press
QNH
hPa
Press
MSL
hPa
Rain
since 9 am
mm
Dir
 
Spd
km/h
Gust
km/h
Spd
kts
Gust
kts
24/11:30pm 1.7 -3.5 -11.4 37 4.2 SSW 11 17 6 9 1018.1 1017.4 0.0
24/11:00pm 2.4 -6.1 -11.5 35 4.5 SW 28 46 15 25 1018.1 1017.4 0.0
24/10:30pm 2.6 -7.6 -11.3 35 4.5 SW 37 48 20 26 1017.7 1017.1 0.0
24/10:00pm 1.5 -8.0 -7.8 50 3.2 SW 35 43 19 23 1018.2 1017.6 0.0
24/09:30pm 1.3 -8.5 -7.0 54 2.9 SW 37 50 20 27 1018.0 1017.3 0.0
24/09:00pm 0.4 -7.7 -3.5 75 1.5 SW 30 37 16 20 1018.2 1017.6 0.0
24/08:30pm 0.2 -5.8 -1.4 89 0.6 SW 20 26 11 14 1018.4 1017.8 0.0
24/08:00pm -0.1 -2.9 -0.2 99 0.0 WNW 4 7 2 4 1018.7 1018.1 0.0
24/07:30pm 0.2 -3.9 0.1 99 0.0 WNW 11 17 6 9 1018.4 1017.8 0.0
24/07:00pm 0.1 -4.4 0.0 99 0.0 W 13 20 7 11 1018.2 1017.6 0.0
24/06:30pm 0.5 -4.7 0.4 99 0.0 W 17 30 9 16 1018.1 1017.4 0.0
24/06:00pm 1.0 -3.7 0.9 99 0.0 WNW 15 20 8 11 1018.2 1017.6 0.0
24/05:30pm 0.9 -4.2 0.8 99 0.0 W 17 24 9 13 1017.9 1017.2 0.0
24/05:00pm 1.2 -4.6 0.2 93 0.4 WSW 20 28 11 15 1017.4 1016.7 0.0
24/04:30pm 1.5 -3.5 1.2 98 0.1 W 17 26 9 14 1017.3 1016.6 0.0
24/04:00pm 2.6 -2.8 1.4 92 0.5 W 19 24 10 13 1017.4 1016.7 0.0
24/03:30pm 3.6 -1.9 0.5 80 1.3 W 19 28 10 15 1017.4 1016.7 0.0
24/03:00pm 3.9 -0.3 1.6 85 1.0 WNW 13 20 7 11 1017.4 1016.7 0.0
24/02:30pm 3.8 -0.8 1.5 85 1.0 W 15 20 8 11 1017.3 1016.6 0.0
24/02:00pm 4.3 -1.0 -0.5 71 2.0 WSW 17 32 9 17 1017.1 1016.5 0.0
24/01:30pm 3.5 -2.5 -1.8 68 2.1 WSW 20 33 11 18 1017.1 1016.5 0.0
24/01:00pm 3.0 -3.7 -1.2 74 1.7 SW 24 39 13 21 1017.4 1016.7 0.0
24/12:30pm 2.9 -3.6 -2.2 69 2.0 WSW 22 43 12 23 1017.5 1016.8 0.0
24/12:05pm 2.3 -5.7 -2.4 71 1.8 SW 30 48 16 26 1017.4 1016.7 0.0

Other Formats:

Comma delimited format used in spreadsheet applications
http://www.bom.gov.au/fwo/IDV60801/IDV60801.94903.axf

JavaScript Object Notation format (JSON) in row-major order
http://www.bom.gov.au/fwo/IDV60801/IDV60801.94903.json